Providence, Rhode Island
Traffic Map
Current Weather Conditions
Providence, Rhode Island
Overcast Light Snow
Overcast

Feels Like: -2°
Wind Chill: -2° Ceiling: 2600
Heat Index: Visibility: 2mi
Dew Point: Wind: 13mph
Humidity: 86% Direction: 360° (N)
Pressure: 29.75in Gusts: 0mph
Raw Report DataKPVD 281851Z 36011KT 2SM -RASN BR SCT009 BKN026 OVC032 02/00 A2975 RMK AO2 SLP073 P0001 T00220000
Traffic Incident Summary
Active as of:
Severity:
Category:
InformationThere was an issue retrieving the traffic information for this location. Please try a different location or try again shortly.
Advertisements
Track Severe Weather on mobile